sensor_id;sensor_type;location;lat;lon;timestamp;temperature;humidity
12408;DHT22;6268;48.188;17.134;2023-10-09T00:00:34;12.50;99.90
12408;DHT22;6268;48.188;17.134;2023-10-09T00:03:22;12.50;99.80
12408;DHT22;6268;48.188;17.134;2023-10-09T00:05:51;12.50;99.80
12408;DHT22;6268;48.188;17.134;2023-10-09T00:08:21;12.60;99.00
12408;DHT22;6268;48.188;17.134;2023-10-09T00:11:00;12.60;99.00
12408;DHT22;6268;48.188;17.134;2023-10-09T00:13:41;12.50;98.00
12408;DHT22;6268;48.188;17.134;2023-10-09T00:16:17;12.60;98.00
12408;DHT22;6268;48.188;17.134;2023-10-09T00:18:50;12.60;98.10
12408;DHT22;6268;48.188;17.134;2023-10-09T00:21:20;12.60;98.50
12408;DHT22;6268;48.188;17.134;2023-10-09T00:23:50;12.60;99.00
12408;DHT22;6268;48.188;17.134;2023-10-09T00:26:24;12.50;99.10
12408;DHT22;6268;48.188;17.134;2023-10-09T00:28:53;12.60;99.50
12408;DHT22;6268;48.188;17.134;2023-10-09T00:31:22;12.50;99.90
12408;DHT22;6268;48.188;17.134;2023-10-09T00:34:00;12.50;99.90
12408;DHT22;6268;48.188;17.134;2023-10-09T00:36:35;12.50;99.50
12408;DHT22;6268;48.188;17.134;2023-10-09T00:39:18;12.50;99.90
12408;DHT22;6268;48.188;17.134;2023-10-09T00:42:02;12.60;99.90
12408;DHT22;6268;48.188;17.134;2023-10-09T00:44:33;12.60;99.90
12408;DHT22;6268;48.188;17.134;2023-10-09T00:47:07;12.50;98.90
12408;DHT22;6268;48.188;17.134;2023-10-09T00:49:50;12.60;99.40
12408;DHT22;6268;48.188;17.134;2023-10-09T00:52:21;12.60;99.20
12408;DHT22;6268;48.188;17.134;2023-10-09T00:54:59;12.50;99.60
12408;DHT22;6268;48.188;17.134;2023-10-09T00:57:34;12.50;99.60
12408;DHT22;6268;48.188;17.134;2023-10-09T01:00:06;12.60;99.30
12408;DHT22;6268;48.188;17.134;2023-10-09T01:02:50;12.50;98.70
12408;DHT22;6268;48.188;17.134;2023-10-09T01:05:38;12.50;98.40
12408;DHT22;6268;48.188;17.134;2023-10-09T01:08:13;12.50;98.10
12408;DHT22;6268;48.188;17.134;2023-10-09T01:10:52;12.50;98.30
12408;DHT22;6268;48.188;17.134;2023-10-09T01:13:25;12.50;98.60
12408;DHT22;6268;48.188;17.134;2023-10-09T01:16:07;12.50;98.50
12408;DHT22;6268;48.188;17.134;2023-10-09T01:18:41;12.50;98.90
12408;DHT22;6268;48.188;17.134;2023-10-09T01:21:11;12.50;98.20
12408;DHT22;6268;48.188;17.134;2023-10-09T01:23:42;12.40;98.40
12408;DHT22;6268;48.188;17.134;2023-10-09T01:26:32;12.50;98.70
12408;DHT22;6268;48.188;17.134;2023-10-09T01:29:07;12.50;98.80
12408;DHT22;6268;48.188;17.134;2023-10-09T01:31:38;12.50;98.20
12408;DHT22;6268;48.188;17.134;2023-10-09T01:34:11;12.40;97.60
12408;DHT22;6268;48.188;17.134;2023-10-09T01:36:42;12.30;97.40
12408;DHT22;6268;48.188;17.134;2023-10-09T01:39:12;12.40;96.80
12408;DHT22;6268;48.188;17.134;2023-10-09T01:41:51;12.40;97.10
12408;DHT22;6268;48.188;17.134;2023-10-09T01:44:26;12.30;97.60
12408;DHT22;6268;48.188;17.134;2023-10-09T01:46:57;12.30;98.00
12408;DHT22;6268;48.188;17.134;2023-10-09T01:49:26;12.40;98.20
12408;DHT22;6268;48.188;17.134;2023-10-09T01:51:58;12.40;99.00
12408;DHT22;6268;48.188;17.134;2023-10-09T01:54:32;12.50;99.40
12408;DHT22;6268;48.188;17.134;2023-10-09T01:57:05;12.50;99.90
12408;DHT22;6268;48.188;17.134;2023-10-09T01:59:38;12.60;99.90
12408;DHT22;6268;48.188;17.134;2023-10-09T02:02:11;12.50;99.90
12408;DHT22;6268;48.188;17.134;2023-10-09T02:04:53;12.60;99.90
12408;DHT22;6268;48.188;17.134;2023-10-09T02:07:34;12.60;99.90
12408;DHT22;6268;48.188;17.134;2023-10-09T02:10:11;12.70;99.90
12408;DHT22;6268;48.188;17.134;2023-10-09T02:12:49;12.70;99.90
12408;DHT22;6268;48.188;17.134;2023-10-09T02:15:25;12.70;99.70
12408;DHT22;6268;48.188;17.134;2023-10-09T02:18:08;12.60;98.80
12408;DHT22;6268;48.188;17.134;2023-10-09T02:20:48;12.70;99.40
12408;DHT22;6268;48.188;17.134;2023-10-09T02:23:23;12.60;99.20
12408;DHT22;6268;48.188;17.134;2023-10-09T02:25:59;12.60;98.60
12408;DHT22;6268;48.188;17.134;2023-10-09T02:28:30;12.60;98.00
12408;DHT22;6268;48.188;17.134;2023-10-09T02:31:00;12.60;99.00
12408;DHT22;6268;48.188;17.134;2023-10-09T02:33:30;12.50;99.00
12408;DHT22;6268;48.188;17.134;2023-10-09T02:36:00;12.50;98.60
12408;DHT22;6268;48.188;17.134;2023-10-09T02:38:33;12.60;99.90
12408;DHT22;6268;48.188;17.134;2023-10-09T02:41:04;12.60;99.90
12408;DHT22;6268;48.188;17.134;2023-10-09T02:43:47;12.50;99.30
12408;DHT22;6268;48.188;17.134;2023-10-09T02:46:19;12.60;99.50
12408;DHT22;6268;48.188;17.134;2023-10-09T02:48:49;12.60;99.10
12408;DHT22;6268;48.188;17.134;2023-10-09T02:51:19;12.60;98.80
12408;DHT22;6268;48.188;17.134;2023-10-09T02:54:00;12.60;98.20
12408;DHT22;6268;48.188;17.134;2023-10-09T02:56:37;12.60;97.40
12408;DHT22;6268;48.188;17.134;2023-10-09T02:59:09;12.60;97.00
12408;DHT22;6268;48.188;17.134;2023-10-09T03:01:39;12.50;96.60
12408;DHT22;6268;48.188;17.134;2023-10-09T03:04:08;12.50;97.10
12408;DHT22;6268;48.188;17.134;2023-10-09T03:06:42;12.60;98.50
12408;DHT22;6268;48.188;17.134;2023-10-09T03:09:17;12.60;99.90
12408;DHT22;6268;48.188;17.134;2023-10-09T03:11:49;12.60;99.90
12408;DHT22;6268;48.188;17.134;2023-10-09T03:14:21;12.60;99.90
12408;DHT22;6268;48.188;17.134;2023-10-09T03:16:53;12.60;99.90
12408;DHT22;6268;48.188;17.134;2023-10-09T03:19:24;12.60;99.90
12408;DHT22;6268;48.188;17.134;2023-10-09T03:21:53;12.40;99.90
12408;DHT22;6268;48.188;17.134;2023-10-09T03:24:25;12.40;99.90
12408;DHT22;6268;48.188;17.134;2023-10-09T03:26:56;12.50;99.90
12408;DHT22;6268;48.188;17.134;2023-10-09T03:29:25;12.60;99.90
12408;DHT22;6268;48.188;17.134;2023-10-09T03:31:54;12.60;99.90
12408;DHT22;6268;48.188;17.134;2023-10-09T03:34:24;12.50;99.90
12408;DHT22;6268;48.188;17.134;2023-10-09T03:36:52;12.40;99.60
12408;DHT22;6268;48.188;17.134;2023-10-09T03:39:31;12.30;99.60
12408;DHT22;6268;48.188;17.134;2023-10-09T03:42:07;12.10;99.90
12408;DHT22;6268;48.188;17.134;2023-10-09T03:44:46;12.10;99.80
12408;DHT22;6268;48.188;17.134;2023-10-09T03:47:21;12.00;99.90
12408;DHT22;6268;48.188;17.134;2023-10-09T03:49:52;12.20;99.90
12408;DHT22;6268;48.188;17.134;2023-10-09T03:52:22;12.20;99.90
12408;DHT22;6268;48.188;17.134;2023-10-09T03:54:53;12.30;99.90
12408;DHT22;6268;48.188;17.134;2023-10-09T03:57:24;12.30;99.10
12408;DHT22;6268;48.188;17.134;2023-10-09T03:59:53;12.20;99.10
12408;DHT22;6268;48.188;17.134;2023-10-09T04:02:24;12.20;99.90
12408;DHT22;6268;48.188;17.134;2023-10-09T04:04:53;12.20;99.90
12408;DHT22;6268;48.188;17.134;2023-10-09T04:07:22;12.10;99.90
12408;DHT22;6268;48.188;17.134;2023-10-09T04:09:51;12.10;99.90
12408;DHT22;6268;48.188;17.134;2023-10-09T04:12:41;11.90;99.90
12408;DHT22;6268;48.188;17.134;2023-10-09T04:15:10;12.00;99.90
12408;DHT22;6268;48.188;17.134;2023-10-09T04:17:42;12.00;99.90
12408;DHT22;6268;48.188;17.134;2023-10-09T04:20:14;12.10;99.90
12408;DHT22;6268;48.188;17.134;2023-10-09T04:23:03;11.80;99.90
12408;DHT22;6268;48.188;17.134;2023-10-09T04:25:32;11.90;99.90
12408;DHT22;6268;48.188;17.134;2023-10-09T04:28:11;11.90;99.90
12408;DHT22;6268;48.188;17.134;2023-10-09T04:30:47;11.80;99.90
12408;DHT22;6268;48.188;17.134;2023-10-09T04:33:21;11.80;99.90
12408;DHT22;6268;48.188;17.134;2023-10-09T04:36:02;11.80;99.90
12408;DHT22;6268;48.188;17.134;2023-10-09T04:38:51;11.90;99.90
12408;DHT22;6268;48.188;17.134;2023-10-09T04:41:40;12.00;99.90
12408;DHT22;6268;48.188;17.134;2023-10-09T04:44:21;11.90;99.90
12408;DHT22;6268;48.188;17.134;2023-10-09T04:46:52;11.70;99.90
12408;DHT22;6268;48.188;17.134;2023-10-09T04:49:41;11.70;99.90
12408;DHT22;6268;48.188;17.134;2023-10-09T04:52:17;11.60;99.90
12408;DHT22;6268;48.188;17.134;2023-10-09T04:54:47;11.70;99.90
12408;DHT22;6268;48.188;17.134;2023-10-09T04:57:29;11.90;99.90
12408;DHT22;6268;48.188;17.134;2023-10-09T05:00:08;11.80;99.90
12408;DHT22;6268;48.188;17.134;2023-10-09T05:02:49;11.60;99.90
12408;DHT22;6268;48.188;17.134;2023-10-09T05:05:22;11.40;99.90
12408;DHT22;6268;48.188;17.134;2023-10-09T05:08:05;11.40;99.90
12408;DHT22;6268;48.188;17.134;2023-10-09T05:10:46;11.50;99.90
12408;DHT22;6268;48.188;17.134;2023-10-09T05:13:41;11.50;99.90
12408;DHT22;6268;48.188;17.134;2023-10-09T05:16:26;11.50;99.90
12408;DHT22;6268;48.188;17.134;2023-10-09T05:18:56;11.50;99.90
12408;DHT22;6268;48.188;17.134;2023-10-09T05:21:30;11.70;99.90
12408;DHT22;6268;48.188;17.134;2023-10-09T05:24:12;11.80;99.90
12408;DHT22;6268;48.188;17.134;2023-10-09T05:26:47;11.70;99.90
12408;DHT22;6268;48.188;17.134;2023-10-09T05:29:39;11.90;99.90
12408;DHT22;6268;48.188;17.134;2023-10-09T05:32:28;11.80;99.90
12408;DHT22;6268;48.188;17.134;2023-10-09T05:35:02;11.60;99.90
12408;DHT22;6268;48.188;17.134;2023-10-09T05:37:34;11.70;99.90
12408;DHT22;6268;48.188;17.134;2023-10-09T05:40:10;11.80;99.90
12408;DHT22;6268;48.188;17.134;2023-10-09T05:42:50;11.90;99.90
12408;DHT22;6268;48.188;17.134;2023-10-09T05:45:30;11.70;99.90
12408;DHT22;6268;48.188;17.134;2023-10-09T05:48:33;11.80;99.90
12408;DHT22;6268;48.188;17.134;2023-10-09T05:51:22;11.90;99.90
12408;DHT22;6268;48.188;17.134;2023-10-09T05:54:08;11.70;99.90
12408;DHT22;6268;48.188;17.134;2023-10-09T05:56:51;11.80;99.90
12408;DHT22;6268;48.188;17.134;2023-10-09T05:59:57;11.70;99.90
12408;DHT22;6268;48.188;17.134;2023-10-09T06:02:43;11.50;99.90
12408;DHT22;6268;48.188;17.134;2023-10-09T06:05:30;11.60;99.90
12408;DHT22;6268;48.188;17.134;2023-10-09T06:08:19;11.70;99.90
12408;DHT22;6268;48.188;17.134;2023-10-09T06:10:54;11.90;99.90
12408;DHT22;6268;48.188;17.134;2023-10-09T06:13:33;12.10;99.90
12408;DHT22;6268;48.188;17.134;2023-10-09T06:16:13;12.10;99.90
12408;DHT22;6268;48.188;17.134;2023-10-09T06:19:09;12.30;99.90
12408;DHT22;6268;48.188;17.134;2023-10-09T06:21:42;12.70;99.90
12408;DHT22;6268;48.188;17.134;2023-10-09T06:24:24;13.00;99.90
12408;DHT22;6268;48.188;17.134;2023-10-09T06:27:00;12.90;99.90
12408;DHT22;6268;48.188;17.134;2023-10-09T06:29:52;13.10;99.90
12408;DHT22;6268;48.188;17.134;2023-10-09T06:32:40;13.10;99.90
12408;DHT22;6268;48.188;17.134;2023-10-09T06:35:18;13.00;99.90
12408;DHT22;6268;48.188;17.134;2023-10-09T06:37:51;12.90;99.90
12408;DHT22;6268;48.188;17.134;2023-10-09T06:40:38;12.90;99.90
12408;DHT22;6268;48.188;17.134;2023-10-09T06:43:24;12.90;99.90
12408;DHT22;6268;48.188;17.134;2023-10-09T06:45:57;12.90;99.90
12408;DHT22;6268;48.188;17.134;2023-10-09T06:48:46;13.10;99.90
12408;DHT22;6268;48.188;17.134;2023-10-09T06:51:23;13.40;99.90
12408;DHT22;6268;48.188;17.134;2023-10-09T06:54:11;14.00;99.90
12408;DHT22;6268;48.188;17.134;2023-10-09T06:56:43;14.30;99.90
12408;DHT22;6268;48.188;17.134;2023-10-09T06:59:29;15.10;99.90
12408;DHT22;6268;48.188;17.134;2023-10-09T07:02:30;15.40;99.90
12408;DHT22;6268;48.188;17.134;2023-10-09T07:05:13;15.40;99.90
12408;DHT22;6268;48.188;17.134;2023-10-09T07:07:44;15.20;99.90
12408;DHT22;6268;48.188;17.134;2023-10-09T07:10:24;15.20;99.90
12408;DHT22;6268;48.188;17.134;2023-10-09T07:13:00;14.70;99.90
12408;DHT22;6268;48.188;17.134;2023-10-09T07:15:33;15.00;99.90
12408;DHT22;6268;48.188;17.134;2023-10-09T07:18:21;14.80;99.90
12408;DHT22;6268;48.188;17.134;2023-10-09T07:21:08;14.90;99.90
12408;DHT22;6268;48.188;17.134;2023-10-09T07:23:44;15.80;99.90
12408;DHT22;6268;48.188;17.134;2023-10-09T07:26:18;16.60;99.90
12408;DHT22;6268;48.188;17.134;2023-10-09T07:28:46;17.30;99.90
12408;DHT22;6268;48.188;17.134;2023-10-09T07:31:17;17.30;99.90
12408;DHT22;6268;48.188;17.134;2023-10-09T07:33:54;17.60;99.90
12408;DHT22;6268;48.188;17.134;2023-10-09T07:36:25;18.10;99.90
12408;DHT22;6268;48.188;17.134;2023-10-09T07:39:03;18.40;99.90
12408;DHT22;6268;48.188;17.134;2023-10-09T07:41:42;18.30;99.90
12408;DHT22;6268;48.188;17.134;2023-10-09T07:44:23;18.50;99.90
12408;DHT22;6268;48.188;17.134;2023-10-09T07:47:10;18.40;99.70
12408;DHT22;6268;48.188;17.134;2023-10-09T07:49:56;18.80;98.10
12408;DHT22;6268;48.188;17.134;2023-10-09T07:52:26;19.20;97.70
12408;DHT22;6268;48.188;17.134;2023-10-09T07:54:56;19.40;96.20
12408;DHT22;6268;48.188;17.134;2023-10-09T07:57:32;18.80;96.70
12408;DHT22;6268;48.188;17.134;2023-10-09T08:00:07;18.90;97.00
12408;DHT22;6268;48.188;17.134;2023-10-09T08:03:00;19.00;96.60
12408;DHT22;6268;48.188;17.134;2023-10-09T08:05:36;19.00;95.40
12408;DHT22;6268;48.188;17.134;2023-10-09T08:08:12;19.10;95.80
12408;DHT22;6268;48.188;17.134;2023-10-09T08:11:09;19.80;94.60
12408;DHT22;6268;48.188;17.134;2023-10-09T08:13:56;20.60;91.60
12408;DHT22;6268;48.188;17.134;2023-10-09T08:16:28;20.50;90.30
12408;DHT22;6268;48.188;17.134;2023-10-09T08:19:04;20.40;89.60
12408;DHT22;6268;48.188;17.134;2023-10-09T08:21:56;20.00;90.40
12408;DHT22;6268;48.188;17.134;2023-10-09T08:24:44;20.20;90.20
12408;DHT22;6268;48.188;17.134;2023-10-09T08:27:23;20.50;87.00
12408;DHT22;6268;48.188;17.134;2023-10-09T08:30:13;20.70;84.90
12408;DHT22;6268;48.188;17.134;2023-10-09T08:32:55;21.00;84.80
12408;DHT22;6268;48.188;17.134;2023-10-09T08:35:34;21.60;82.10
12408;DHT22;6268;48.188;17.134;2023-10-09T08:38:14;21.70;79.60
12408;DHT22;6268;48.188;17.134;2023-10-09T08:40:44;21.70;79.50
12408;DHT22;6268;48.188;17.134;2023-10-09T08:43:15;21.60;78.20
12408;DHT22;6268;48.188;17.134;2023-10-09T08:45:47;21.70;77.80
12408;DHT22;6268;48.188;17.134;2023-10-09T08:48:19;21.40;76.50
12408;DHT22;6268;48.188;17.134;2023-10-09T08:50:49;20.80;77.40
12408;DHT22;6268;48.188;17.134;2023-10-09T08:53:18;20.30;78.30
12408;DHT22;6268;48.188;17.134;2023-10-09T08:55:46;20.40;79.10
12408;DHT22;6268;48.188;17.134;2023-10-09T08:58:15;20.90;78.40
12408;DHT22;6268;48.188;17.134;2023-10-09T09:00:49;21.30;76.70
12408;DHT22;6268;48.188;17.134;2023-10-09T09:03:18;21.30;74.80
12408;DHT22;6268;48.188;17.134;2023-10-09T09:05:57;21.30;75.00
12408;DHT22;6268;48.188;17.134;2023-10-09T09:08:30;20.70;75.30
12408;DHT22;6268;48.188;17.134;2023-10-09T09:10:59;20.00;77.80
12408;DHT22;6268;48.188;17.134;2023-10-09T09:13:40;19.90;79.30
12408;DHT22;6268;48.188;17.134;2023-10-09T09:16:18;19.80;80.10
12408;DHT22;6268;48.188;17.134;2023-10-09T09:18:52;19.30;81.30
12408;DHT22;6268;48.188;17.134;2023-10-09T09:21:28;18.70;83.60
12408;DHT22;6268;48.188;17.134;2023-10-09T09:24:00;18.70;84.80
12408;DHT22;6268;48.188;17.134;2023-10-09T09:26:34;18.50;85.30
12408;DHT22;6268;48.188;17.134;2023-10-09T09:29:05;18.50;86.40
12408;DHT22;6268;48.188;17.134;2023-10-09T09:31:37;18.40;86.60
12408;DHT22;6268;48.188;17.134;2023-10-09T09:34:09;18.40;87.40
12408;DHT22;6268;48.188;17.134;2023-10-09T09:36:50;18.10;89.30
12408;DHT22;6268;48.188;17.134;2023-10-09T09:39:26;18.10;89.50
12408;DHT22;6268;48.188;17.134;2023-10-09T09:42:11;18.20;89.50
12408;DHT22;6268;48.188;17.134;2023-10-09T09:44:42;18.40;89.70
12408;DHT22;6268;48.188;17.134;2023-10-09T09:47:15;18.50;89.40
12408;DHT22;6268;48.188;17.134;2023-10-09T09:49:52;18.40;89.70
12408;DHT22;6268;48.188;17.134;2023-10-09T09:52:29;18.30;90.00
12408;DHT22;6268;48.188;17.134;2023-10-09T09:55:08;18.20;90.10
12408;DHT22;6268;48.188;17.134;2023-10-09T09:57:43;18.50;90.30
12408;DHT22;6268;48.188;17.134;2023-10-09T10:00:13;18.70;89.70
12408;DHT22;6268;48.188;17.134;2023-10-09T10:03:03;18.70;89.00
12408;DHT22;6268;48.188;17.134;2023-10-09T10:05:34;18.70;89.30
12408;DHT22;6268;48.188;17.134;2023-10-09T10:08:04;18.60;89.60
12408;DHT22;6268;48.188;17.134;2023-10-09T10:10:40;18.60;90.10
12408;DHT22;6268;48.188;17.134;2023-10-09T10:13:17;18.50;90.00
12408;DHT22;6268;48.188;17.134;2023-10-09T10:15:59;18.20;90.40
12408;DHT22;6268;48.188;17.134;2023-10-09T10:21:36;18.30;90.60
12408;DHT22;6268;48.188;17.134;2023-10-09T10:24:42;18.40;90.30
12408;DHT22;6268;48.188;17.134;2023-10-09T10:27:20;18.60;90.40
12408;DHT22;6268;48.188;17.134;2023-10-09T10:30:28;18.70;90.30
12408;DHT22;6268;48.188;17.134;2023-10-09T10:33:04;18.80;90.00
12408;DHT22;6268;48.188;17.134;2023-10-09T10:35:41;18.60;90.10
12408;DHT22;6268;48.188;17.134;2023-10-09T10:38:31;18.70;90.50
12408;DHT22;6268;48.188;17.134;2023-10-09T10:41:23;18.70;90.50
12408;DHT22;6268;48.188;17.134;2023-10-09T10:43:51;18.60;91.40
12408;DHT22;6268;48.188;17.134;2023-10-09T10:46:27;18.50;92.30
12408;DHT22;6268;48.188;17.134;2023-10-09T10:49:06;18.60;94.30
12408;DHT22;6268;48.188;17.134;2023-10-09T10:51:49;18.70;95.60
12408;DHT22;6268;48.188;17.134;2023-10-09T10:54:30;18.60;94.60
12408;DHT22;6268;48.188;17.134;2023-10-09T10:57:17;18.50;95.60
12408;DHT22;6268;48.188;17.134;2023-10-09T10:59:57;18.60;95.20
12408;DHT22;6268;48.188;17.134;2023-10-09T11:02:33;18.60;96.10
12408;DHT22;6268;48.188;17.134;2023-10-09T11:05:05;18.50;96.70
12408;DHT22;6268;48.188;17.134;2023-10-09T11:07:51;18.50;98.80
12408;DHT22;6268;48.188;17.134;2023-10-09T11:10:26;18.70;99.90
12408;DHT22;6268;48.188;17.134;2023-10-09T11:12:59;18.70;99.90
12408;DHT22;6268;48.188;17.134;2023-10-09T11:15:45;18.80;99.90
12408;DHT22;6268;48.188;17.134;2023-10-09T11:18:23;18.70;99.90
12408;DHT22;6268;48.188;17.134;2023-10-09T11:20:55;18.70;99.90
12408;DHT22;6268;48.188;17.134;2023-10-09T11:23:45;18.40;99.90
12408;DHT22;6268;48.188;17.134;2023-10-09T11:26:27;18.50;99.90
12408;DHT22;6268;48.188;17.134;2023-10-09T11:29:17;18.40;99.90
12408;DHT22;6268;48.188;17.134;2023-10-09T11:31:58;18.30;99.90
12408;DHT22;6268;48.188;17.134;2023-10-09T11:34:27;18.10;99.90
12408;DHT22;6268;48.188;17.134;2023-10-09T11:37:01;18.00;99.90
12408;DHT22;6268;48.188;17.134;2023-10-09T11:39:30;18.10;99.90
12408;DHT22;6268;48.188;17.134;2023-10-09T11:42:22;18.00;99.90
12408;DHT22;6268;48.188;17.134;2023-10-09T11:45:03;18.00;99.90
12408;DHT22;6268;48.188;17.134;2023-10-09T11:47:47;18.10;99.90
12408;DHT22;6268;48.188;17.134;2023-10-09T11:50:41;18.20;99.90
12408;DHT22;6268;48.188;17.134;2023-10-09T11:53:18;18.10;99.90
12408;DHT22;6268;48.188;17.134;2023-10-09T11:56:00;18.10;99.90
12408;DHT22;6268;48.188;17.134;2023-10-09T11:58:30;17.90;99.90
12408;DHT22;6268;48.188;17.134;2023-10-09T12:00:59;17.80;99.90
12408;DHT22;6268;48.188;17.134;2023-10-09T12:03:32;17.90;99.90
12408;DHT22;6268;48.188;17.134;2023-10-09T12:06:02;18.00;99.90
12408;DHT22;6268;48.188;17.134;2023-10-09T12:08:34;17.70;99.90
12408;DHT22;6268;48.188;17.134;2023-10-09T12:11:05;17.60;99.90
12408;DHT22;6268;48.188;17.134;2023-10-09T12:13:38;17.50;99.90
12408;DHT22;6268;48.188;17.134;2023-10-09T12:16:06;17.50;99.90
12408;DHT22;6268;48.188;17.134;2023-10-09T12:18:37;17.60;99.90
12408;DHT22;6268;48.188;17.134;2023-10-09T12:21:07;17.70;99.90
12408;DHT22;6268;48.188;17.134;2023-10-09T12:23:35;17.60;99.90
12408;DHT22;6268;48.188;17.134;2023-10-09T12:26:04;17.60;99.90
12408;DHT22;6268;48.188;17.134;2023-10-09T12:28:44;17.50;99.90
12408;DHT22;6268;48.188;17.134;2023-10-09T12:31:13;17.30;99.90
12408;DHT22;6268;48.188;17.134;2023-10-09T12:33:43;17.40;99.90
12408;DHT22;6268;48.188;17.134;2023-10-09T12:36:12;17.40;99.90
12408;DHT22;6268;48.188;17.134;2023-10-09T12:38:47;17.50;99.90
12408;DHT22;6268;48.188;17.134;2023-10-09T12:41:20;17.40;99.90
12408;DHT22;6268;48.188;17.134;2023-10-09T12:43:55;17.50;99.90
12408;DHT22;6268;48.188;17.134;2023-10-09T12:46:28;17.50;99.90
12408;DHT22;6268;48.188;17.134;2023-10-09T12:49:00;17.50;99.90
12408;DHT22;6268;48.188;17.134;2023-10-09T12:51:28;17.50;99.90
12408;DHT22;6268;48.188;17.134;2023-10-09T12:53:58;17.50;99.90
12408;DHT22;6268;48.188;17.134;2023-10-09T12:56:28;17.50;99.90
12408;DHT22;6268;48.188;17.134;2023-10-09T12:59:06;17.40;99.90
12408;DHT22;6268;48.188;17.134;2023-10-09T13:01:42;17.50;99.90
12408;DHT22;6268;48.188;17.134;2023-10-09T13:04:11;17.30;99.90
12408;DHT22;6268;48.188;17.134;2023-10-09T13:06:43;17.20;99.90
12408;DHT22;6268;48.188;17.134;2023-10-09T13:09:13;17.10;99.90
12408;DHT22;6268;48.188;17.134;2023-10-09T13:11:43;17.10;99.90
12408;DHT22;6268;48.188;17.134;2023-10-09T13:14:16;17.10;99.90
12408;DHT22;6268;48.188;17.134;2023-10-09T13:16:49;17.10;99.90
12408;DHT22;6268;48.188;17.134;2023-10-09T13:19:19;17.00;99.90
12408;DHT22;6268;48.188;17.134;2023-10-09T13:21:51;17.00;99.90
12408;DHT22;6268;48.188;17.134;2023-10-09T13:24:20;17.00;99.90
12408;DHT22;6268;48.188;17.134;2023-10-09T13:26:57;17.10;99.90
12408;DHT22;6268;48.188;17.134;2023-10-09T13:29:27;17.00;99.90
12408;DHT22;6268;48.188;17.134;2023-10-09T13:32:01;17.10;99.90
12408;DHT22;6268;48.188;17.134;2023-10-09T13:34:41;17.20;99.90
12408;DHT22;6268;48.188;17.134;2023-10-09T13:37:12;17.20;99.90
12408;DHT22;6268;48.188;17.134;2023-10-09T13:39:41;17.20;99.90
12408;DHT22;6268;48.188;17.134;2023-10-09T13:42:20;17.30;99.90
12408;DHT22;6268;48.188;17.134;2023-10-09T13:44:53;17.30;99.90
12408;DHT22;6268;48.188;17.134;2023-10-09T13:47:22;17.30;99.90
12408;DHT22;6268;48.188;17.134;2023-10-09T13:49:59;17.30;99.90
12408;DHT22;6268;48.188;17.134;2023-10-09T13:52:28;17.30;99.90
12408;DHT22;6268;48.188;17.134;2023-10-09T13:54:58;17.20;99.90
12408;DHT22;6268;48.188;17.134;2023-10-09T13:57:42;17.20;99.90
12408;DHT22;6268;48.188;17.134;2023-10-09T14:00:15;17.20;99.90
12408;DHT22;6268;48.188;17.134;2023-10-09T14:03:00;17.10;99.90
12408;DHT22;6268;48.188;17.134;2023-10-09T14:05:39;17.00;99.90
12408;DHT22;6268;48.188;17.134;2023-10-09T14:08:20;17.00;99.90
12408;DHT22;6268;48.188;17.134;2023-10-09T14:10:50;17.20;99.90
12408;DHT22;6268;48.188;17.134;2023-10-09T14:13:19;17.00;99.90
12408;DHT22;6268;48.188;17.134;2023-10-09T14:15:54;17.10;99.90
12408;DHT22;6268;48.188;17.134;2023-10-09T14:18:27;17.10;99.90
12408;DHT22;6268;48.188;17.134;2023-10-09T14:21:01;16.90;99.90
12408;DHT22;6268;48.188;17.134;2023-10-09T14:23:32;17.00;99.90
12408;DHT22;6268;48.188;17.134;2023-10-09T14:26:02;16.90;99.90
12408;DHT22;6268;48.188;17.134;2023-10-09T14:28:33;16.80;99.90
12408;DHT22;6268;48.188;17.134;2023-10-09T14:31:04;16.80;99.90
12408;DHT22;6268;48.188;17.134;2023-10-09T14:33:38;16.70;99.90
12408;DHT22;6268;48.188;17.134;2023-10-09T14:36:07;16.70;99.90
12408;DHT22;6268;48.188;17.134;2023-10-09T14:38:41;16.70;99.90
12408;DHT22;6268;48.188;17.134;2023-10-09T14:41:10;16.70;99.90
12408;DHT22;6268;48.188;17.134;2023-10-09T14:43:39;16.70;99.90
12408;DHT22;6268;48.188;17.134;2023-10-09T14:46:14;16.80;99.90
12408;DHT22;6268;48.188;17.134;2023-10-09T14:48:43;16.80;99.90
12408;DHT22;6268;48.188;17.134;2023-10-09T14:51:13;16.70;99.90
12408;DHT22;6268;48.188;17.134;2023-10-09T14:53:42;16.80;99.90
12408;DHT22;6268;48.188;17.134;2023-10-09T14:56:11;16.80;99.90
12408;DHT22;6268;48.188;17.134;2023-10-09T14:58:43;16.70;99.90
12408;DHT22;6268;48.188;17.134;2023-10-09T15:01:15;16.70;99.90
12408;DHT22;6268;48.188;17.134;2023-10-09T15:03:47;16.70;99.90
12408;DHT22;6268;48.188;17.134;2023-10-09T15:06:20;16.60;99.90
12408;DHT22;6268;48.188;17.134;2023-10-09T15:08:49;16.60;99.90
12408;DHT22;6268;48.188;17.134;2023-10-09T15:11:21;16.70;99.90
12408;DHT22;6268;48.188;17.134;2023-10-09T15:13:52;16.60;99.90
12408;DHT22;6268;48.188;17.134;2023-10-09T15:16:22;16.60;99.90
12408;DHT22;6268;48.188;17.134;2023-10-09T15:18:54;16.50;99.90
12408;DHT22;6268;48.188;17.134;2023-10-09T15:21:24;16.50;99.90
12408;DHT22;6268;48.188;17.134;2023-10-09T15:23:55;16.60;99.90
12408;DHT22;6268;48.188;17.134;2023-10-09T15:26:24;16.60;99.90
12408;DHT22;6268;48.188;17.134;2023-10-09T15:29:01;16.60;99.90
12408;DHT22;6268;48.188;17.134;2023-10-09T15:31:35;16.50;99.90
12408;DHT22;6268;48.188;17.134;2023-10-09T15:34:04;16.40;99.90
12408;DHT22;6268;48.188;17.134;2023-10-09T15:36:36;16.40;99.90
12408;DHT22;6268;48.188;17.134;2023-10-09T15:39:04;16.40;99.90
12408;DHT22;6268;48.188;17.134;2023-10-09T15:41:35;16.30;99.90
12408;DHT22;6268;48.188;17.134;2023-10-09T15:44:06;16.30;99.90
12408;DHT22;6268;48.188;17.134;2023-10-09T15:46:36;16.30;99.90
12408;DHT22;6268;48.188;17.134;2023-10-09T15:49:05;16.30;99.90
12408;DHT22;6268;48.188;17.134;2023-10-09T15:51:36;16.40;99.90
12408;DHT22;6268;48.188;17.134;2023-10-09T15:54:05;16.40;99.90
12408;DHT22;6268;48.188;17.134;2023-10-09T15:56:36;16.40;99.90
12408;DHT22;6268;48.188;17.134;2023-10-09T15:59:09;16.30;99.90
12408;DHT22;6268;48.188;17.134;2023-10-09T16:01:40;16.30;99.90
12408;DHT22;6268;48.188;17.134;2023-10-09T16:04:10;16.20;99.90
12408;DHT22;6268;48.188;17.134;2023-10-09T16:06:39;16.30;99.90
12408;DHT22;6268;48.188;17.134;2023-10-09T16:09:08;16.30;99.90
12408;DHT22;6268;48.188;17.134;2023-10-09T16:11:39;16.30;99.90
12408;DHT22;6268;48.188;17.134;2023-10-09T16:14:08;16.30;99.90
12408;DHT22;6268;48.188;17.134;2023-10-09T16:16:38;16.30;99.90
12408;DHT22;6268;48.188;17.134;2023-10-09T16:19:13;16.30;99.90
12408;DHT22;6268;48.188;17.134;2023-10-09T16:21:42;16.30;99.90
12408;DHT22;6268;48.188;17.134;2023-10-09T16:24:11;16.30;99.90
12408;DHT22;6268;48.188;17.134;2023-10-09T16:26:42;16.30;99.90